Hauptseite
METAR-TAF:

METAR-TAF

Flughäfen :

Flughafen Straßburg

Straßburg, Frankreich

Breite: 48-33N, Länge: 007-38E, Höhe: 153 m

Beobachtung

Neuester Wetterbericht von vor 18 Minuten, um 04:00 UTC
Wind 3 kt aus Südwest
Temperatur 7°C
Luftfeuchtigkeit 93%
Luftdruck 1017 hPa
Sichtweite: 7000 m

METAR: LFST 160400Z AUTO 23003KT 7000 NSC 07/06 Q1017 TEMPO 4000 BCFG

Zeit: 06:18 (04:18 UTC)

Prognose

Neuester Wetterbericht von vor 5 Stunden und 18 Minuten, um 23:00 UTC
Gültige Prognose vom 16 um 00 UTC bis 16 um 24 UTC
Wind 4 kt aus Nordwest
Sichtweite 10 km oder mehr
keine Wolken unter 1500 m und keine Kumulonimbus oder Gewitterwolken
Wahrscheinlichkeit 40% :
Zeitweise
vom 16 um 03 UTC bis 16 um 07 UTC
Sichtweite: 4000 m
Nebelschwaden

TAF: LFST 152300Z 1600/1624 32004KT CAVOK PROB40 TEMPO 1603/1607 4000 BCFG

Wetterbeobachtungen und Prognosen von mehr als 4000 Flughäfen (METAR und TAF Bericht).

Die verfügbaren Stationen werden durch gelbe und rote Markierungen auf der Karte dargestellt.

Führen Sie die Maus auf sie, um den Namen der Station zu sehen.

Darauf klicken, um die Beobachtung von Wetterbeobachtungen und Prognosen zu sehen.

Um die Karte zu ändern : klicken Sie auf den grünen Tasten mit einem schwarzen Kreuz Zum Vergrößern, auf den grünen Button mit einem Gedankenstrich zu verkleinern, oder auf die grünen Pfeile für benachbarte Karten.


METAR-TAF: